Time;durP1;ratioP1;P1;durP2;ratioP2;P2;SDS_P1;SDS_P2;PMS_P1;PMS_P2;Temp;Humidity;BMP_temperature;BMP_pressure;BME280_temperature;BME280_humidity;BME280_pressure;Samples;Min_cycle;Max_cycle;Signal;HPM_P1;HPM_P2
2021/01/13 00:00:07;;;;;;;39.78;21.17;;;-0.20;99.90;;;;;;4968726;28;20500;-54
2021/01/13 00:02:33;;;;;;;41.92;23.30;;;-0.10;99.90;;;;;;4968319;28;20097;-53
2021/01/13 00:04:59;;;;;;;38.83;21.38;;;-0.10;99.90;;;;;;4968412;28;20046;-54
2021/01/13 00:07:25;;;;;;;42.10;21.83;;;-0.10;99.90;;;;;;4968830;28;20062;-54
2021/01/13 00:09:51;;;;;;;41.65;21.88;;;-0.10;99.90;;;;;;4968812;28;20070;-54
2021/01/13 00:12:17;;;;;;;38.13;20.83;;;-0.10;99.90;;;;;;4968881;28;20126;-54
2021/01/13 00:14:43;;;;;;;36.83;20.67;;;-0.10;99.90;;;;;;4968646;28;20516;-54
2021/01/13 00:17:09;;;;;;;41.20;21.05;;;-0.10;99.90;;;;;;4968384;28;20655;-54
2021/01/13 00:19:35;;;;;;;43.45;21.65;;;-0.10;99.90;;;;;;4971539;28;20035;-54
2021/01/13 00:22:02;;;;;;;35.00;19.58;;;-0.20;99.90;;;;;;4972475;28;20019;-53
2021/01/13 00:24:27;;;;;;;36.72;19.42;;;-0.10;99.90;;;;;;4972668;28;20081;-54
2021/01/13 00:26:57;;;;;;;38.88;20.00;;;-0.10;99.90;;;;;;4972394;28;20588;-54
2021/01/13 00:29:23;;;;;;;41.33;21.70;;;-0.10;99.90;;;;;;4972387;28;20062;-54
2021/01/13 00:31:49;;;;;;;39.42;20.33;;;-0.10;99.90;;;;;;4972329;28;20030;-54
2021/01/13 00:34:15;;;;;;;42.40;21.77;;;-0.10;99.90;;;;;;4972000;28;20114;-53
2021/01/13 00:36:42;;;;;;;37.28;22.05;;;-0.10;99.90;;;;;;4971937;28;20022;-54
2021/01/13 00:39:08;;;;;;;36.65;20.95;;;-0.10;99.90;;;;;;4972171;28;20042;-54
2021/01/13 00:41:38;;;;;;;40.85;21.95;;;-0.10;99.90;;;;;;4976245;28;20030;-60
2021/01/13 00:44:05;;;;;;;37.80;21.17;;;-0.10;99.90;;;;;;4972801;28;20039;-54
2021/01/13 00:46:42;;;;;;;39.63;21.92;;;-0.10;99.90;;;;;;4971887;28;20073;-54
2021/01/13 00:49:08;;;;;;;34.47;20.15;;;-0.10;99.90;;;;;;4972051;28;20112;-55
2021/01/13 00:51:42;;;;;;;40.35;21.52;;;0.00;99.90;;;;;;4971980;28;20015;-53
2021/01/13 00:54:10;;;;;;;37.05;21.83;;;-0.10;99.90;;;;;;4971841;28;20073;-55
2021/01/13 00:56:43;;;;;;;42.50;21.70;;;0.00;99.90;;;;;;4971712;28;20381;-53
2021/01/13 00:59:10;;;;;;;42.00;21.38;;;-0.10;99.90;;;;;;4971716;28;20031;-53
2021/01/13 01:01:37;;;;;;;39.83;21.48;;;-0.10;99.90;;;;;;4972022;28;20069;-55
2021/01/13 01:04:04;;;;;;;39.78;22.30;;;-0.10;99.90;;;;;;4971936;28;20051;-54
2021/01/13 01:06:30;;;;;;;44.22;21.85;;;0.00;99.90;;;;;;4971476;28;20031;-53
2021/01/13 01:08:56;;;;;;;41.17;21.50;;;0.00;99.90;;;;;;4971863;28;20038;-54
2021/01/13 01:11:34;;;;;;;38.55;20.95;;;0.00;99.90;;;;;;4971462;28;20030;-54
2021/01/13 01:14:01;;;;;;;42.30;22.52;;;0.00;99.90;;;;;;4971700;28;20078;-54
2021/01/13 01:16:35;;;;;;;39.50;21.25;;;0.10;99.90;;;;;;4971393;28;20054;-54
2021/01/13 01:19:02;;;;;;;37.53;20.27;;;0.00;99.90;;;;;;4971632;28;20097;-53
2021/01/13 01:21:28;;;;;;;39.70;21.85;;;0.10;99.90;;;;;;4971312;28;20544;-53
2021/01/13 01:23:54;;;;;;;36.97;22.15;;;0.00;99.90;;;;;;4971460;28;20139;-54
2021/01/13 01:26:20;;;;;;;39.97;21.02;;;0.00;99.90;;;;;;4970096;28;20109;-53
2021/01/13 01:28:46;;;;;;;35.85;21.25;;;0.00;99.90;;;;;;4971306;28;20027;-53
2021/01/13 01:31:12;;;;;;;41.03;20.58;;;0.00;99.90;;;;;;4970547;28;20030;-53
2021/01/13 01:33:38;;;;;;;36.22;20.33;;;0.10;99.90;;;;;;4970876;28;20038;-53
2021/01/13 01:36:04;;;;;;;35.30;19.73;;;0.10;99.90;;;;;;4971191;28;20031;-53
2021/01/13 01:38:30;;;;;;;37.05;20.77;;;0.10;99.90;;;;;;4970741;28;20034;-54
2021/01/13 01:41:07;;;;;;;36.55;20.88;;;0.00;99.90;;;;;;4974423;28;20078;-53
2021/01/13 01:43:32;;;;;;;37.97;19.83;;;0.00;99.90;;;;;;4971119;28;20437;-53
2021/01/13 01:45:59;;;;;;;38.67;20.10;;;0.10;99.90;;;;;;4971009;28;20513;-53
2021/01/13 01:48:49;;;;;;;36.58;19.92;;;0.10;99.90;;;;;;4970710;28;20042;-53
2021/01/13 01:51:26;;;;;;;35.55;19.92;;;0.10;99.90;;;;;;4970743;28;20501;-53
2021/01/13 01:53:58;;;;;;;34.42;19.65;;;0.20;99.90;;;;;;4970578;28;20043;-54
2021/01/13 01:56:25;;;;;;;37.90;19.77;;;0.10;99.90;;;;;;4970924;28;20113;-53
2021/01/13 01:59:09;;;;;;;39.08;20.00;;;0.10;99.90;;;;;;4970789;28;20118;-54
2021/01/13 02:01:38;;;;;;;35.05;20.15;;;0.10;99.90;;;;;;4969362;28;20043;-53
2021/01/13 02:04:06;;;;;;;35.88;19.77;;;0.20;99.90;;;;;;4970714;28;20054;-54
2021/01/13 02:06:34;;;;;;;34.00;19.70;;;0.20;99.90;;;;;;4970445;28;20027;-54
2021/01/13 02:08:59;;;;;;;33.00;18.60;;;0.20;99.90;;;;;;4972727;28;20054;-54
2021/01/13 02:11:27;;;;;;;33.15;19.65;;;0.20;99.90;;;;;;4960639;28;20078;-54
2021/01/13 02:13:53;;;;;;;33.45;18.83;;;0.20;99.90;;;;;;4968662;28;20512;-53
2021/01/13 02:16:20;;;;;;;36.17;19.73;;;0.20;99.90;;;;;;4970334;28;20444;-53
2021/01/13 02:18:47;;;;;;;32.67;19.02;;;0.20;99.90;;;;;;4970283;28;20054;-53
2021/01/13 02:21:21;;;;;;;32.00;18.27;;;0.30;99.90;;;;;;4970165;28;20035;-53
2021/01/13 02:23:55;;;;;;;36.28;19.27;;;0.20;99.90;;;;;;4969916;28;20125;-53
2021/01/13 02:27:03;;;;;;;35.58;19.95;;;0.20;99.90;;;;;;4970017;28;20620;-53
2021/01/13 02:29:37;;;;;;;32.65;18.45;;;0.20;99.90;;;;;;4964522;28;20042;-53
2021/01/13 02:32:32;;;;;;;39.15;21.48;;;0.20;99.90;;;;;;4970048;28;20034;-53
2021/01/13 02:35:09;;;;;;;36.17;20.13;;;0.20;99.90;;;;;;4968695;28;20113;-53
2021/01/13 02:37:44;;;;;;;34.25;19.67;;;0.20;99.90;;;;;;4968934;28;20097;-53
2021/01/13 02:40:20;;;;;;;33.70;18.90;;;0.20;99.90;;;;;;4975028;28;20038;-53
2021/01/13 02:43:20;;;;;;;33.58;18.90;;;0.20;99.90;;;;;;4974056;28;20109;-53
2021/01/13 02:45:47;;;;;;;39.10;19.33;;;0.10;99.90;;;;;;4961681;28;20058;-52
2021/01/13 02:48:18;;;;;;;37.55;20.52;;;0.20;99.90;;;;;;4969696;28;20034;-53
2021/01/13 02:50:55;;;;;;;32.38;18.35;;;0.20;99.90;;;;;;4969730;28;20034;-53
2021/01/13 02:53:21;;;;;;;34.63;19.90;;;0.20;99.90;;;;;;4969565;28;20031;-53
2021/01/13 02:55:47;;;;;;;30.13;18.83;;;0.10;99.90;;;;;;4969820;28;20043;-53
2021/01/13 02:58:25;;;;;;;37.65;19.98;;;0.20;99.90;;;;;;4969831;28;20138;-53
2021/01/13 03:00:52;;;;;;;36.47;19.35;;;0.20;99.90;;;;;;4969548;28;20042;-53
2021/01/13 03:03:18;;;;;;;34.35;20.33;;;0.20;99.90;;;;;;4969673;28;20501;-53
2021/01/13 03:05:45;;;;;;;37.97;20.55;;;0.20;99.90;;;;;;4969328;28;20056;-53
2021/01/13 03:08:12;;;;;;;37.50;20.42;;;0.30;99.90;;;;;;4969406;28;20061;-53
2021/01/13 03:10:39;;;;;;;36.83;20.95;;;0.40;99.90;;;;;;4969032;28;20035;-53
2021/01/13 03:13:07;;;;;;;34.90;20.38;;;0.40;99.90;;;;;;4969679;28;20033;-53
2021/01/13 03:15:38;;;;;;;36.47;20.38;;;0.30;99.90;;;;;;4969309;28;20548;-53
2021/01/13 03:18:05;;;;;;;36.58;21.33;;;0.20;99.90;;;;;;4969609;28;20034;-53
2021/01/13 03:20:55;;;;;;;38.25;21.33;;;0.30;99.90;;;;;;4969650;28;20078;-53
2021/01/13 03:23:34;;;;;;;34.60;20.40;;;0.30;99.90;;;;;;4969064;28;20034;-53
2021/01/13 03:26:05;;;;;;;40.17;20.00;;;0.20;99.90;;;;;;4969026;28;20098;-52
2021/01/13 03:28:37;;;;;;;38.10;22.25;;;0.20;99.90;;;;;;4968937;28;20027;-54
2021/01/13 03:31:03;;;;;;;;;;;0.30;99.90;;;;;;4969892;28;20038;-53
2021/01/13 03:34:06;;;;;;;37.70;19.40;;;0.30;99.90;;;;;;4968905;28;19907;-52
2021/01/13 03:37:10;;;;;;;37.00;21.08;;;0.10;99.90;;;;;;4969283;28;20117;-53
2021/01/13 03:39:38;;;;;;;39.10;20.65;;;0.10;99.90;;;;;;4969240;28;20034;-52
2021/01/13 03:42:16;;;;;;;37.35;21.45;;;0.20;99.90;;;;;;4970478;28;20030;-53
2021/01/13 03:44:46;;;;;;;36.42;21.58;;;0.30;99.90;;;;;;4968810;28;20082;-53
2021/01/13 03:47:30;;;;;;;37.35;20.23;;;0.30;99.90;;;;;;4969012;28;20155;-52
2021/01/13 03:50:10;;;;;;;37.40;21.73;;;0.20;99.90;;;;;;4968709;28;20027;-53
2021/01/13 03:52:50;;;;;;;37.60;20.85;;;0.30;99.90;;;;;;4969227;28;20122;-53
2021/01/13 03:55:16;;;;;;;43.80;22.08;;;0.20;99.90;;;;;;4972596;28;20051;-53
2021/01/13 03:57:56;;;;;;;36.72;20.45;;;0.20;99.90;;;;;;4972958;28;20189;-54
2021/01/13 04:00:29;;;;;;;33.95;20.73;;;0.20;99.90;;;;;;4972844;28;20031;-53
2021/01/13 04:02:54;;;;;;;;;;;0.20;99.90;;;;;;4973132;28;20043;-52
2021/01/13 04:05:30;;;;;;;34.20;18.27;;;0.20;99.90;;;;;;4972523;28;20300;-52
2021/01/13 04:07:57;;;;;;;33.15;18.25;;;0.20;99.90;;;;;;4972750;28;20622;-53
2021/01/13 04:10:24;;;;;;;30.80;17.55;;;0.20;99.90;;;;;;4972666;28;20027;-52
2021/01/13 04:13:07;;;;;;;36.38;19.42;;;0.20;99.90;;;;;;4972643;28;20050;-52
2021/01/13 04:15:38;;;;;;;30.17;17.35;;;0.20;99.90;;;;;;4972842;28;20046;-53
2021/01/13 04:18:10;;;;;;;31.00;17.63;;;0.20;99.90;;;;;;4973047;28;20034;-52
2021/01/13 04:20:37;;;;;;;29.27;17.33;;;0.20;99.90;;;;;;4972675;28;20089;-53
2021/01/13 04:23:05;;;;;;;27.30;17.27;;;0.20;99.90;;;;;;4972642;28;20023;-52
2021/01/13 04:25:32;;;;;;;27.35;16.52;;;0.20;99.90;;;;;;4972094;28;20049;-53
2021/01/13 04:27:58;;;;;;;25.65;15.65;;;0.20;99.90;;;;;;4972494;28;20037;-52
2021/01/13 04:30:26;;;;;;;24.90;15.35;;;0.20;99.90;;;;;;4972275;28;20058;-53
2021/01/13 04:32:58;;;;;;;29.40;17.23;;;0.20;99.90;;;;;;4972307;28;20496;-52
2021/01/13 04:35:25;;;;;;;29.15;17.52;;;0.10;99.90;;;;;;4972450;28;20133;-52
2021/01/13 04:37:53;;;;;;;31.90;16.52;;;0.20;99.90;;;;;;4972066;28;20034;-53
2021/01/13 04:40:30;;;;;;;29.02;17.38;;;0.10;99.90;;;;;;4974542;28;20041;-53
2021/01/13 04:43:01;;;;;;;27.40;16.23;;;0.10;99.90;;;;;;4972145;28;20714;-52
2021/01/13 04:45:39;;;;;;;29.42;15.98;;;0.20;99.90;;;;;;4972107;28;20035;-53
2021/01/13 04:48:11;;;;;;;27.35;16.83;;;0.20;99.90;;;;;;4972428;28;20031;-52
2021/01/13 04:50:42;;;;;;;26.50;15.77;;;0.20;99.90;;;;;;4972309;28;20118;-53
2021/01/13 04:53:19;;;;;;;24.17;15.20;;;0.20;99.90;;;;;;4972043;28;20900;-53
2021/01/13 04:55:55;;;;;;;28.75;16.33;;;0.30;99.90;;;;;;4972061;28;20042;-52
2021/01/13 04:58:27;;;;;;;23.25;14.68;;;0.30;99.90;;;;;;4971852;28;20444;-52
2021/01/13 05:01:06;;;;;;;21.70;15.23;;;0.30;99.90;;;;;;4971654;28;20093;-52
2021/01/13 05:03:43;;;;;;;22.45;14.20;;;0.30;99.90;;;;;;4971920;28;20047;-52
2021/01/13 05:06:38;;;;;;;27.77;15.35;;;0.30;99.90;;;;;;4971690;28;20516;-53
2021/01/13 05:09:08;;;;;;;25.58;14.82;;;0.30;99.90;;;;;;4935933;28;20048;-52
2021/01/13 05:12:04;;;;;;;21.92;13.15;;;0.30;99.90;;;;;;4971782;28;20056;-52
2021/01/13 05:14:42;;;;;;;20.05;14.05;;;0.30;99.90;;;;;;4969994;28;20078;-53
2021/01/13 05:17:33;;;;;;;23.77;13.73;;;0.30;99.90;;;;;;4970321;28;20488;-52
2021/01/13 05:20:22;;;;;;;22.95;14.60;;;0.30;99.90;;;;;;4975448;28;20076;-52
2021/01/13 05:22:51;;;;;;;19.67;13.07;;;0.40;99.90;;;;;;4964024;28;20054;-52
2021/01/13 05:25:35;;;;;;;23.23;13.60;;;0.40;99.90;;;;;;4971699;28;20084;-52
2021/01/13 05:28:17;;;;;;;20.48;13.85;;;0.40;99.90;;;;;;4971498;28;20026;-52
2021/01/13 05:30:53;;;;;;;25.87;15.47;;;0.40;99.90;;;;;;4971262;28;20077;-53
2021/01/13 05:33:24;;;;;;;25.35;14.07;;;0.40;99.90;;;;;;4971503;28;20309;-52
2021/01/13 05:35:53;;;;;;;21.27;13.02;;;0.40;99.90;;;;;;4971635;28;20390;-52
2021/01/13 05:38:37;;;;;;;20.20;13.02;;;0.40;99.90;;;;;;4971151;28;20027;-52
2021/01/13 05:41:10;;;;;;;18.73;12.10;;;0.40;99.90;;;;;;4972082;28;20480;-52
2021/01/13 05:43:41;;;;;;;18.52;11.60;;;0.40;99.90;;;;;;4971293;28;20027;-53
2021/01/13 05:46:12;;;;;;;15.93;10.10;;;0.40;99.90;;;;;;4972275;28;20153;-52
2021/01/13 05:48:42;;;;;;;15.80;10.23;;;0.40;99.90;;;;;;4971184;28;20050;-52
2021/01/13 05:51:09;;;;;;;16.45;10.00;;;0.40;99.90;;;;;;4971228;28;20070;-52
2021/01/13 05:53:35;;;;;;;12.80;8.85;;;0.40;99.90;;;;;;4971004;28;20112;-54
2021/01/13 05:56:04;;;;;;;16.83;9.57;;;0.40;99.90;;;;;;4971181;28;20073;-52
2021/01/13 05:58:30;;;;;;;13.30;8.85;;;0.40;99.90;;;;;;4970759;28;20027;-52
2021/01/13 06:00:59;;;;;;;15.43;9.57;;;0.40;99.90;;;;;;4971227;28;20042;-52
2021/01/13 06:03:30;;;;;;;13.45;8.55;;;0.40;99.90;;;;;;4971575;28;20138;-53
2021/01/13 06:06:00;;;;;;;12.35;8.63;;;0.50;99.90;;;;;;4971148;28;20045;-53
2021/01/13 06:08:31;;;;;;;11.15;8.75;;;0.50;99.90;;;;;;4970696;28;20026;-52
2021/01/13 06:10:58;;;;;;;13.55;8.70;;;0.50;99.90;;;;;;4970783;28;20038;-52
2021/01/13 06:13:30;;;;;;;15.95;9.50;;;0.50;99.90;;;;;;4970682;28;20478;-52
2021/01/13 06:16:01;;;;;;;12.07;7.30;;;0.50;99.90;;;;;;4970317;28;20408;-52
2021/01/13 06:18:27;;;;;;;11.77;7.93;;;0.50;99.90;;;;;;4970695;28;20559;-52
2021/01/13 06:20:57;;;;;;;9.73;6.95;;;0.40;99.90;;;;;;4970737;28;20035;-53
2021/01/13 06:23:26;;;;;;;9.82;7.15;;;0.40;99.90;;;;;;4970683;28;20133;-52
2021/01/13 06:25:53;;;;;;;11.57;7.38;;;0.40;99.90;;;;;;4970923;28;20505;-52
2021/01/13 06:29:06;;;;;;;11.35;7.70;;;0.30;99.90;;;;;;4970077;28;20239;-51
2021/01/13 06:31:42;;;;;;;6.57;4.80;;;0.30;99.90;;;;;;4956307;28;20121;-52
2021/01/13 06:34:33;;;;;;;9.25;6.75;;;0.30;99.90;;;;;;4970257;28;20497;-52
2021/01/13 06:37:23;;;;;;;9.93;7.00;;;0.30;99.90;;;;;;4970323;28;20512;-52
2021/01/13 06:39:51;;;;;;;9.50;7.00;;;0.30;99.90;;;;;;4972231;28;20031;-52
2021/01/13 06:42:30;;;;;;;13.20;8.50;;;0.30;99.90;;;;;;4970227;28;20039;-52
2021/01/13 06:44:56;;;;;;;11.50;8.70;;;0.30;99.90;;;;;;4969959;28;20130;-52
2021/01/13 06:47:24;;;;;;;12.30;9.43;;;0.30;99.90;;;;;;4970247;28;20030;-52
2021/01/13 06:49:51;;;;;;;13.00;9.35;;;0.20;99.90;;;;;;4970009;28;20046;-52
2021/01/13 06:52:33;;;;;;;16.48;9.52;;;0.20;99.90;;;;;;4969921;28;20045;-52
2021/01/13 06:55:00;;;;;;;16.27;9.93;;;0.20;99.90;;;;;;4969685;28;20108;-52
2021/01/13 06:57:28;;;;;;;13.50;9.52;;;0.20;99.90;;;;;;4970081;28;20027;-53
2021/01/13 06:59:54;;;;;;;16.77;10.77;;;0.20;99.90;;;;;;4968435;28;20560;-52
2021/01/13 07:02:33;;;;;;;14.15;9.88;;;0.20;99.90;;;;;;4969903;28;20030;-53
2021/01/13 07:05:00;;;;;;;15.48;10.02;;;0.20;99.90;;;;;;4969917;28;20050;-52
2021/01/13 07:07:26;;;;;;;13.57;9.98;;;0.20;99.90;;;;;;4969889;28;20351;-53
2021/01/13 07:09:52;;;;;;;13.07;9.32;;;0.20;99.90;;;;;;4969834;28;20091;-52
2021/01/13 07:12:19;;;;;;;13.98;9.38;;;0.20;99.90;;;;;;4969438;28;20027;-52
2021/01/13 07:14:56;;;;;;;14.20;8.52;;;0.10;99.90;;;;;;4969582;28;20041;-52
2021/01/13 07:17:26;;;;;;;16.02;9.98;;;0.00;99.90;;;;;;4969324;28;20038;-52
2021/01/13 07:19:53;;;;;;;13.18;8.20;;;0.10;99.90;;;;;;4969694;28;20485;-52
2021/01/13 07:22:21;;;;;;;12.50;8.63;;;0.10;99.90;;;;;;4969580;28;20073;-52
2021/01/13 07:24:48;;;;;;;11.50;7.50;;;0.20;99.90;;;;;;4969541;28;20065;-52
2021/01/13 07:27:15;;;;;;;16.83;8.93;;;0.10;99.90;;;;;;4969410;28;20074;-52
2021/01/13 07:29:41;;;;;;;13.02;7.47;;;0.10;99.90;;;;;;4968840;28;20035;-53
2021/01/13 07:32:09;;;;;;;12.38;8.32;;;0.20;99.90;;;;;;4969374;28;20031;-52
2021/01/13 07:34:40;;;;;;;17.23;8.18;;;0.20;99.90;;;;;;4969410;28;20505;-52
2021/01/13 07:37:30;;;;;;;15.73;8.15;;;0.20;99.90;;;;;;4965783;28;20495;-52
2021/01/13 07:39:59;;;;;;;16.98;7.53;;;0.10;99.90;;;;;;4971310;28;20034;-52
2021/01/13 07:42:33;;;;;;;17.00;8.15;;;0.20;99.90;;;;;;4969472;28;20481;-52
2021/01/13 07:45:16;;;;;;;13.90;8.40;;;0.10;99.90;;;;;;4968986;28;20081;-53
2021/01/13 07:48:14;;;;;;;16.15;8.13;;;0.10;99.90;;;;;;4969295;28;20030;-52
2021/01/13 07:50:42;;;;;;;12.98;8.15;;;0.10;99.90;;;;;;4969422;28;20030;-52
2021/01/13 07:53:31;;;;;;;13.20;7.85;;;0.20;99.90;;;;;;4969149;28;20033;-51
2021/01/13 07:56:00;;;;;;;11.30;7.05;;;0.20;99.90;;;;;;4968954;28;20509;-51
2021/01/13 07:58:28;;;;;;;13.93;8.90;;;0.20;99.90;;;;;;4969336;28;20022;-51
2021/01/13 08:01:12;;;;;;;15.88;8.02;;;0.30;99.90;;;;;;4969214;28;20089;-51
2021/01/13 08:04:15;;;;;;;13.32;7.93;;;0.30;99.90;;;;;;4969128;28;20051;-51
2021/01/13 08:06:53;;;;;;;14.45;7.43;;;0.30;99.90;;;;;;4969472;28;20031;-51
2021/01/13 08:09:21;;;;;;;16.08;8.25;;;0.30;99.90;;;;;;4969002;28;20119;-51
2021/01/13 08:12:13;;;;;;;12.68;8.35;;;0.30;99.90;;;;;;4969105;28;20089;-51
2021/01/13 08:14:42;;;;;;;;;;;0.30;99.90;;;;;;4969249;28;20039;-52
2021/01/13 08:17:39;;;;;;;14.95;7.97;;;0.30;99.90;;;;;;4967632;28;20324;-51
2021/01/13 08:20:24;;;;;;;13.13;8.00;;;0.30;99.90;;;;;;4969180;28;20053;-51
2021/01/13 08:23:02;;;;;;;13.25;7.13;;;0.20;99.90;;;;;;4969243;28;20050;-51
2021/01/13 08:25:28;;;;;;;11.43;6.32;;;0.30;99.90;;;;;;4968775;28;20031;-51
2021/01/13 08:27:58;;;;;;;10.02;6.22;;;0.20;99.90;;;;;;4969289;28;20030;-52
2021/01/13 08:30:28;;;;;;;11.65;6.45;;;0.30;99.90;;;;;;4968967;28;20508;-51
2021/01/13 08:32:56;;;;;;;9.38;5.68;;;0.30;99.90;;;;;;4968925;28;20077;-52
2021/01/13 08:35:36;;;;;;;9.70;6.88;;;0.30;99.90;;;;;;4968176;28;20042;-52
2021/01/13 08:38:07;;;;;;;11.15;5.95;;;0.40;99.90;;;;;;4965945;28;20563;-52
2021/01/13 08:40:34;;;;;;;11.25;7.20;;;0.40;99.90;;;;;;4972489;28;20022;-51
2021/01/13 08:43:13;;;;;;;12.68;7.43;;;0.40;99.90;;;;;;4972732;28;20046;-51
2021/01/13 08:45:50;;;;;;;11.50;7.78;;;0.40;99.90;;;;;;4972156;28;20085;-52
2021/01/13 08:48:21;;;;;;;18.05;10.60;;;0.40;99.90;;;;;;4972418;28;20104;-51
2021/01/13 08:51:08;;;;;;;18.42;11.02;;;0.50;99.90;;;;;;4972745;28;20039;-51
2021/01/13 08:53:35;;;;;;;19.25;9.82;;;0.50;99.90;;;;;;4972271;28;20089;-51
2021/01/13 08:56:01;;;;;;;21.33;11.48;;;0.50;99.90;;;;;;4972621;28;20039;-51
2021/01/13 08:58:35;;;;;;;18.75;11.15;;;0.50;99.90;;;;;;4971905;28;20568;-51
2021/01/13 09:01:06;;;;;;;19.38;11.52;;;0.50;99.90;;;;;;4972384;28;20062;-51
2021/01/13 09:03:40;;;;;;;23.08;12.15;;;0.60;99.90;;;;;;4971969;28;20497;-51
2021/01/13 09:06:23;;;;;;;24.88;13.63;;;0.60;99.90;;;;;;4972248;28;20030;-54
2021/01/13 09:08:54;;;;;;;26.17;12.40;;;0.60;99.90;;;;;;4971950;28;20106;-51
2021/01/13 09:11:33;;;;;;;31.60;15.13;;;0.60;99.90;;;;;;4971548;28;20043;-51
2021/01/13 09:14:20;;;;;;;30.25;15.32;;;0.60;99.90;;;;;;4971766;28;20038;-51
2021/01/13 09:16:50;;;;;;;23.95;14.38;;;0.60;99.90;;;;;;4971999;28;20064;-51
2021/01/13 09:19:34;;;;;;;29.92;18.00;;;0.70;99.90;;;;;;4971614;28;20043;-51
2021/01/13 09:22:09;;;;;;;32.53;19.35;;;0.70;99.90;;;;;;4971886;28;20493;-51
2021/01/13 09:24:42;;;;;;;39.72;20.70;;;0.60;99.90;;;;;;4971992;28;20507;-51
2021/01/13 09:27:10;;;;;;;31.85;20.30;;;0.70;99.90;;;;;;4971680;28;20042;-51
2021/01/13 09:29:53;;;;;;;35.63;21.95;;;0.70;99.90;;;;;;4971824;28;20126;-51
2021/01/13 09:32:21;;;;;;;42.13;23.85;;;0.70;99.90;;;;;;4971381;28;20125;-51
2021/01/13 09:34:54;;;;;;;44.28;24.75;;;0.70;99.90;;;;;;4971519;28;20535;-51
2021/01/13 09:37:22;;;;;;;39.28;22.70;;;0.70;99.90;;;;;;4970715;28;20039;-51
2021/01/13 09:40:02;;;;;;;36.25;21.42;;;0.70;99.90;;;;;;4973324;28;20515;-51
2021/01/13 09:42:38;;;;;;;39.05;21.00;;;0.70;99.90;;;;;;4959774;28;20479;-51
2021/01/13 09:45:05;;;;;;;37.65;21.85;;;0.70;99.90;;;;;;4971355;28;20027;-51
2021/01/13 09:47:32;;;;;;;33.17;20.23;;;0.70;99.90;;;;;;4971111;28;20604;-52
2021/01/13 09:49:59;;;;;;;33.72;18.88;;;0.70;99.90;;;;;;4971211;28;20035;-57
2021/01/13 09:52:26;;;;;;;33.67;19.67;;;0.70;99.90;;;;;;4970541;28;20023;-52
2021/01/13 09:55:02;;;;;;;31.70;18.88;;;0.80;99.90;;;;;;4970769;28;20416;-51
2021/01/13 09:57:29;;;;;;;24.45;17.50;;;0.90;99.90;;;;;;4971189;28;20039;-51
2021/01/13 10:00:00;;;;;;;25.80;16.00;;;0.90;99.90;;;;;;4971103;28;20026;-51
2021/01/13 10:02:29;;;;;;;26.45;16.00;;;1.00;99.90;;;;;;4970873;28;20515;-51
2021/01/13 10:04:56;;;;;;;26.25;15.43;;;1.00;99.90;;;;;;4970990;28;20050;-51
2021/01/13 10:07:23;;;;;;;20.50;12.70;;;1.10;99.90;;;;;;4971050;28;20030;-51
2021/01/13 10:09:50;;;;;;;17.13;11.93;;;1.10;99.90;;;;;;4970884;28;20042;-53
2021/01/13 10:12:17;;;;;;;20.75;12.13;;;1.20;99.90;;;;;;4970890;28;20019;-65
2021/01/13 10:14:51;;;;;;;16.38;10.32;;;1.20;99.90;;;;;;4971017;28;20078;-51
2021/01/13 10:17:26;;;;;;;15.98;9.73;;;1.10;99.90;;;;;;4970838;28;20088;-51
2021/01/13 10:19:53;;;;;;;14.30;9.43;;;1.10;99.90;;;;;;4970617;28;20030;-51
2021/01/13 10:22:29;;;;;;;15.18;9.90;;;1.10;99.90;;;;;;4970736;28;20512;-61
2021/01/13 10:24:56;;;;;;;19.65;10.50;;;1.10;99.90;;;;;;4970558;28;20035;-51
2021/01/13 10:27:22;;;;;;;14.30;8.93;;;1.00;99.90;;;;;;4970623;28;20046;-59
2021/01/13 10:29:48;;;;;;;15.23;9.27;;;1.00;99.90;;;;;;4970574;28;20031;-51
2021/01/13 10:32:15;;;;;;;17.17;10.73;;;1.10;99.90;;;;;;4970301;28;20027;-53
2021/01/13 10:34:41;;;;;;;19.60;10.45;;;1.00;99.90;;;;;;4970093;28;20592;-51
2021/01/13 10:37:07;;;;;;;22.88;12.35;;;1.10;99.90;;;;;;4970560;28;20151;-51
2021/01/13 10:39:34;;;;;;;21.05;11.95;;;1.10;99.90;;;;;;4970342;28;20511;-53
2021/01/13 10:42:07;;;;;;;33.13;12.75;;;1.10;99.90;;;;;;4971835;28;20034;-51
2021/01/13 10:44:34;;;;;;;24.45;15.32;;;1.10;99.90;;;;;;4970426;28;20066;-51
2021/01/13 10:47:04;;;;;;;24.23;14.35;;;1.20;99.90;;;;;;4970285;28;20053;-51
2021/01/13 10:49:48;;;;;;;25.80;16.27;;;1.20;99.90;;;;;;4970166;28;20507;-51
2021/01/13 10:52:16;;;;;;;30.25;17.83;;;1.20;99.90;;;;;;4970362;28;20031;-52
2021/01/13 10:54:44;;;;;;;29.92;18.25;;;1.10;99.90;;;;;;4969904;28;20034;-52
2021/01/13 10:57:15;;;;;;;32.03;19.35;;;1.10;99.90;;;;;;4970236;28;20035;-52
2021/01/13 10:59:42;;;;;;;33.15;19.52;;;1.10;99.90;;;;;;4970069;28;20097;-52
2021/01/13 11:02:10;;;;;;;32.28;20.75;;;1.00;99.90;;;;;;4970064;28;20027;-52
2021/01/13 11:04:41;;;;;;;37.28;21.00;;;1.10;99.90;;;;;;4970060;28;20130;-52
2021/01/13 11:07:08;;;;;;;39.30;23.08;;;1.10;99.90;;;;;;4970076;28;20085;-52
2021/01/13 11:09:36;;;;;;;43.67;24.73;;;1.10;99.90;;;;;;4969807;28;20026;-53
2021/01/13 11:12:04;;;;;;;42.22;24.38;;;1.10;99.90;;;;;;4968397;28;20093;-53
2021/01/13 11:14:37;;;;;;;38.17;22.85;;;1.20;99.90;;;;;;4969688;28;20070;-54
2021/01/13 11:17:11;;;;;;;37.25;20.38;;;1.30;99.90;;;;;;4969828;28;20121;-53
2021/01/13 11:19:38;;;;;;;35.42;20.13;;;1.30;99.90;;;;;;4969725;28;20042;-53
2021/01/13 11:22:06;;;;;;;25.08;15.40;;;1.30;99.90;;;;;;4969282;28;20015;-54
2021/01/13 11:24:43;;;;;;;27.20;14.43;;;1.30;99.90;;;;;;4969619;28;20027;-54
2021/01/13 11:27:16;;;;;;;20.33;13.07;;;1.30;99.90;;;;;;4969711;28;20126;-54
2021/01/13 11:29:45;;;;;;;17.70;10.98;;;1.40;99.90;;;;;;4969554;28;20389;-54
2021/01/13 11:32:17;;;;;;;21.95;11.88;;;1.40;99.90;;;;;;4969484;28;20500;-54
2021/01/13 11:34:53;;;;;;;18.23;11.05;;;1.40;99.90;;;;;;4969182;28;20046;-54
2021/01/13 11:37:31;;;;;;;22.38;11.90;;;1.50;99.90;;;;;;4969200;28;20082;-54
2021/01/13 11:40:20;;;;;;;18.58;11.65;;;1.50;99.90;;;;;;4971732;28;20046;-54
2021/01/13 11:43:13;;;;;;;17.77;10.60;;;1.50;99.90;;;;;;4969428;28;20031;-54
2021/01/13 11:46:01;;;;;;;21.33;10.68;;;1.50;99.90;;;;;;4961386;28;20041;-54
2021/01/13 11:48:40;;;;;;;19.42;10.70;;;1.50;99.90;;;;;;4970118;28;20041;-54
2021/01/13 11:51:11;;;;;;;22.42;12.63;;;1.50;99.90;;;;;;4969448;28;20462;-55
2021/01/13 11:53:37;;;;;;;22.35;11.55;;;1.50;99.90;;;;;;4969293;28;20035;-55
2021/01/13 11:56:04;;;;;;;18.08;11.05;;;1.60;99.90;;;;;;4969298;28;20070;-54
2021/01/13 11:58:31;;;;;;;17.40;9.88;;;1.60;99.90;;;;;;4969220;28;20144;-55
2021/01/13 12:00:58;;;;;;;17.60;10.55;;;1.60;99.90;;;;;;4969548;28;20078;-55
2021/01/13 12:03:23;;;;;;;14.40;8.90;;;1.60;99.90;;;;;;4968936;28;20424;-55
2021/01/13 12:05:49;;;;;;;17.73;10.05;;;1.60;99.90;;;;;;4969251;28;20122;-55
2021/01/13 12:08:20;;;;;;;18.27;10.68;;;1.70;99.90;;;;;;4969068;28;20039;-55
2021/01/13 12:10:55;;;;;;;16.33;9.93;;;1.70;99.90;;;;;;4969135;28;20027;-56
2021/01/13 12:13:29;;;;;;;20.73;11.15;;;1.60;99.90;;;;;;4969242;28;20037;-56
2021/01/13 12:15:59;;;;;;;17.85;10.63;;;1.50;99.90;;;;;;4972143;28;20413;-56
2021/01/13 12:18:27;;;;;;;16.63;10.68;;;1.50;99.90;;;;;;4973239;28;20035;-56
2021/01/13 12:21:13;;;;;;;19.20;11.57;;;1.40;99.90;;;;;;4972691;28;20034;-56
2021/01/13 12:23:40;;;;;;;18.00;10.82;;;1.40;99.90;;;;;;4965629;28;20043;-55
2021/01/13 12:26:33;;;;;;;20.58;11.93;;;1.40;99.90;;;;;;4973225;28;20054;-56
2021/01/13 12:29:08;;;;;;;18.10;10.90;;;1.30;99.90;;;;;;4972680;28;20773;-56
2021/01/13 12:31:46;;;;;;;16.00;9.48;;;1.20;99.90;;;;;;4972978;28;20030;-56
2021/01/13 12:34:16;;;;;;;19.17;10.85;;;1.20;99.90;;;;;;4972763;28;20039;-56
2021/01/13 12:36:44;;;;;;;19.95;11.45;;;1.10;99.90;;;;;;4972415;28;20031;-57
2021/01/13 12:39:21;;;;;;;18.95;10.80;;;1.10;99.90;;;;;;4972338;28;20177;-57
2021/01/13 12:41:50;;;;;;;22.92;12.80;;;1.10;99.90;;;;;;4975170;28;20022;-56
2021/01/13 12:44:15;;;;;;;19.88;10.27;;;1.00;99.90;;;;;;4972566;28;20029;-56
2021/01/13 12:46:53;;;;;;;23.50;11.98;;;1.00;99.90;;;;;;4972467;28;20035;-56
2021/01/13 12:49:20;;;;;;;18.02;11.48;;;1.00;99.90;;;;;;4972723;28;20061;-56
2021/01/13 12:51:53;;;;;;;27.77;13.55;;;1.00;99.90;;;;;;4971907;28;20034;-57
2021/01/13 12:54:19;;;;;;;22.00;12.18;;;1.00;99.90;;;;;;4972650;28;20035;-56
2021/01/13 12:56:45;;;;;;;27.88;12.02;;;0.90;99.90;;;;;;4972017;28;20062;-55
2021/01/13 12:59:11;;;;;;;24.08;12.52;;;0.80;99.90;;;;;;4972356;28;20481;-55
2021/01/13 13:01:41;;;;;;;21.98;11.52;;;0.80;99.90;;;;;;4971939;28;20031;-56
2021/01/13 13:04:08;;;;;;;25.38;13.75;;;0.80;99.90;;;;;;4972169;28;20065;-56
2021/01/13 13:06:38;;;;;;;28.48;13.70;;;0.80;99.90;;;;;;4972105;28;20050;-56